sensor_id;sensor_type;location;lat;lon;timestamp;P1;durP1;ratioP1;P2;durP2;ratioP2
19907;SDS011;10116;53.112;7.356;2024-01-15T00:02:11;0.80;;;0.80;;
19907;SDS011;10116;53.112;7.356;2024-01-15T00:04:37;1.00;;;0.90;;
19907;SDS011;10116;53.112;7.356;2024-01-15T00:07:03;0.97;;;0.70;;
19907;SDS011;10116;53.112;7.356;2024-01-15T00:09:29;0.60;;;0.60;;
19907;SDS011;10116;53.112;7.356;2024-01-15T00:11:55;1.27;;;0.73;;
19907;SDS011;10116;53.112;7.356;2024-01-15T00:14:21;0.80;;;0.70;;
19907;SDS011;10116;53.112;7.356;2024-01-15T00:16:46;0.70;;;0.63;;
19907;SDS011;10116;53.112;7.356;2024-01-15T00:19:14;0.87;;;0.73;;
19907;SDS011;10116;53.112;7.356;2024-01-15T00:21:40;1.03;;;0.77;;
19907;SDS011;10116;53.112;7.356;2024-01-15T00:24:05;1.10;;;0.90;;
19907;SDS011;10116;53.112;7.356;2024-01-15T00:26:31;2.23;;;1.10;;
19907;SDS011;10116;53.112;7.356;2024-01-15T00:28:56;1.17;;;0.63;;
19907;SDS011;10116;53.112;7.356;2024-01-15T00:31:22;1.00;;;0.90;;
19907;SDS011;10116;53.112;7.356;2024-01-15T00:33:48;1.63;;;0.90;;
19907;SDS011;10116;53.112;7.356;2024-01-15T00:36:13;0.67;;;0.67;;
19907;SDS011;10116;53.112;7.356;2024-01-15T00:38:39;1.03;;;0.83;;
19907;SDS011;10116;53.112;7.356;2024-01-15T00:41:05;2.53;;;0.83;;
19907;SDS011;10116;53.112;7.356;2024-01-15T00:43:31;1.00;;;0.90;;
19907;SDS011;10116;53.112;7.356;2024-01-15T00:45:57;1.33;;;0.80;;
19907;SDS011;10116;53.112;7.356;2024-01-15T00:48:22;1.37;;;0.93;;
19907;SDS011;10116;53.112;7.356;2024-01-15T00:50:48;1.00;;;0.73;;
19907;SDS011;10116;53.112;7.356;2024-01-15T00:53:13;1.60;;;0.90;;
19907;SDS011;10116;53.112;7.356;2024-01-15T00:55:39;0.97;;;0.80;;
19907;SDS011;10116;53.112;7.356;2024-01-15T00:58:05;0.80;;;0.80;;
19907;SDS011;10116;53.112;7.356;2024-01-15T01:00:30;0.93;;;0.70;;
19907;SDS011;10116;53.112;7.356;2024-01-15T01:02:56;1.93;;;0.87;;
19907;SDS011;10116;53.112;7.356;2024-01-15T01:05:22;1.23;;;0.87;;
19907;SDS011;10116;53.112;7.356;2024-01-15T01:07:47;1.00;;;0.90;;
19907;SDS011;10116;53.112;7.356;2024-01-15T01:10:13;0.90;;;0.60;;
19907;SDS011;10116;53.112;7.356;2024-01-15T01:12:38;1.30;;;0.70;;
19907;SDS011;10116;53.112;7.356;2024-01-15T01:15:04;1.20;;;0.80;;
19907;SDS011;10116;53.112;7.356;2024-01-15T01:17:30;1.53;;;0.83;;
19907;SDS011;10116;53.112;7.356;2024-01-15T01:19:56;1.13;;;0.70;;
19907;SDS011;10116;53.112;7.356;2024-01-15T01:22:21;0.87;;;0.70;;
19907;SDS011;10116;53.112;7.356;2024-01-15T01:24:47;0.60;;;0.60;;
19907;SDS011;10116;53.112;7.356;2024-01-15T01:27:13;1.07;;;0.77;;
19907;SDS011;10116;53.112;7.356;2024-01-15T01:29:38;1.07;;;0.70;;
19907;SDS011;10116;53.112;7.356;2024-01-15T01:32:04;0.80;;;0.80;;
19907;SDS011;10116;53.112;7.356;2024-01-15T01:34:32;1.37;;;0.80;;
19907;SDS011;10116;53.112;7.356;2024-01-15T01:37:05;0.90;;;0.83;;
19907;SDS011;10116;53.112;7.356;2024-01-15T01:39:30;0.70;;;0.60;;
19907;SDS011;10116;53.112;7.356;2024-01-15T01:41:56;1.33;;;0.80;;
19907;SDS011;10116;53.112;7.356;2024-01-15T01:44:22;1.00;;;0.73;;
19907;SDS011;10116;53.112;7.356;2024-01-15T01:46:47;0.70;;;0.70;;
19907;SDS011;10116;53.112;7.356;2024-01-15T01:49:13;1.00;;;0.70;;
19907;SDS011;10116;53.112;7.356;2024-01-15T01:51:39;0.93;;;0.70;;
19907;SDS011;10116;53.112;7.356;2024-01-15T01:54:04;0.70;;;0.70;;
19907;SDS011;10116;53.112;7.356;2024-01-15T01:56:33;0.93;;;0.70;;
19907;SDS011;10116;53.112;7.356;2024-01-15T01:58:59;0.97;;;0.80;;
19907;SDS011;10116;53.112;7.356;2024-01-15T02:01:25;1.63;;;0.87;;
19907;SDS011;10116;53.112;7.356;2024-01-15T02:03:51;0.50;;;0.50;;
19907;SDS011;10116;53.112;7.356;2024-01-15T02:06:17;0.60;;;0.50;;
19907;SDS011;10116;53.112;7.356;2024-01-15T02:08:43;1.57;;;0.80;;
19907;SDS011;10116;53.112;7.356;2024-01-15T02:11:09;1.40;;;1.00;;
19907;SDS011;10116;53.112;7.356;2024-01-15T02:13:35;0.70;;;0.70;;
19907;SDS011;10116;53.112;7.356;2024-01-15T02:16:01;1.63;;;0.70;;
19907;SDS011;10116;53.112;7.356;2024-01-15T02:18:26;1.20;;;0.73;;
19907;SDS011;10116;53.112;7.356;2024-01-15T02:20:52;1.23;;;0.87;;
19907;SDS011;10116;53.112;7.356;2024-01-15T02:23:17;1.00;;;0.70;;
19907;SDS011;10116;53.112;7.356;2024-01-15T02:25:46;1.77;;;1.00;;
19907;SDS011;10116;53.112;7.356;2024-01-15T02:28:14;1.30;;;0.80;;
19907;SDS011;10116;53.112;7.356;2024-01-15T02:30:41;4.17;;;0.63;;
19907;SDS011;10116;53.112;7.356;2024-01-15T02:33:08;2.40;;;0.60;;
19907;SDS011;10116;53.112;7.356;2024-01-15T02:35:34;1.00;;;0.60;;
19907;SDS011;10116;53.112;7.356;2024-01-15T02:38:04;7.57;;;0.70;;
19907;SDS011;10116;53.112;7.356;2024-01-15T02:40:31;1.47;;;0.60;;
19907;SDS011;10116;53.112;7.356;2024-01-15T02:42:57;1.43;;;0.90;;
19907;SDS011;10116;53.112;7.356;2024-01-15T02:45:22;1.03;;;0.93;;
19907;SDS011;10116;53.112;7.356;2024-01-15T02:47:48;6.10;;;0.90;;
19907;SDS011;10116;53.112;7.356;2024-01-15T02:50:15;0.60;;;0.60;;
19907;SDS011;10116;53.112;7.356;2024-01-15T02:52:41;0.67;;;0.67;;
19907;SDS011;10116;53.112;7.356;2024-01-15T02:55:07;2.20;;;0.60;;
19907;SDS011;10116;53.112;7.356;2024-01-15T02:57:33;0.80;;;0.80;;
19907;SDS011;10116;53.112;7.356;2024-01-15T02:59:59;1.73;;;0.97;;
19907;SDS011;10116;53.112;7.356;2024-01-15T03:02:24;1.17;;;0.80;;
19907;SDS011;10116;53.112;7.356;2024-01-15T03:04:50;0.80;;;0.70;;
19907;SDS011;10116;53.112;7.356;2024-01-15T03:07:16;0.80;;;0.80;;
19907;SDS011;10116;53.112;7.356;2024-01-15T03:09:41;1.40;;;0.70;;
19907;SDS011;10116;53.112;7.356;2024-01-15T03:12:07;1.43;;;1.00;;
19907;SDS011;10116;53.112;7.356;2024-01-15T03:14:33;0.70;;;0.70;;
19907;SDS011;10116;53.112;7.356;2024-01-15T03:16:59;0.93;;;0.87;;
19907;SDS011;10116;53.112;7.356;2024-01-15T03:19:25;0.83;;;0.70;;
19907;SDS011;10116;53.112;7.356;2024-01-15T03:21:51;1.33;;;0.83;;
19907;SDS011;10116;53.112;7.356;2024-01-15T03:24:17;0.70;;;0.70;;
19907;SDS011;10116;53.112;7.356;2024-01-15T03:26:43;1.53;;;0.97;;
19907;SDS011;10116;53.112;7.356;2024-01-15T03:29:08;0.77;;;0.77;;
19907;SDS011;10116;53.112;7.356;2024-01-15T03:31:34;2.00;;;0.90;;
19907;SDS011;10116;53.112;7.356;2024-01-15T03:34:00;1.63;;;0.63;;
19907;SDS011;10116;53.112;7.356;2024-01-15T03:36:25;0.70;;;0.70;;
19907;SDS011;10116;53.112;7.356;2024-01-15T03:38:51;1.33;;;0.77;;
19907;SDS011;10116;53.112;7.356;2024-01-15T03:41:17;1.40;;;0.80;;
19907;SDS011;10116;53.112;7.356;2024-01-15T03:43:42;1.47;;;0.80;;
19907;SDS011;10116;53.112;7.356;2024-01-15T03:46:08;1.33;;;1.03;;
19907;SDS011;10116;53.112;7.356;2024-01-15T03:48:33;0.83;;;0.80;;
19907;SDS011;10116;53.112;7.356;2024-01-15T03:50:59;1.27;;;1.10;;
19907;SDS011;10116;53.112;7.356;2024-01-15T03:53:25;1.47;;;0.90;;
19907;SDS011;10116;53.112;7.356;2024-01-15T03:55:51;1.33;;;0.90;;
19907;SDS011;10116;53.112;7.356;2024-01-15T03:58:17;1.00;;;0.90;;
19907;SDS011;10116;53.112;7.356;2024-01-15T04:00:42;0.80;;;0.77;;
19907;SDS011;10116;53.112;7.356;2024-01-15T04:03:08;1.10;;;1.00;;
19907;SDS011;10116;53.112;7.356;2024-01-15T04:05:34;1.53;;;1.00;;
19907;SDS011;10116;53.112;7.356;2024-01-15T04:08:00;1.10;;;0.80;;
19907;SDS011;10116;53.112;7.356;2024-01-15T04:10:25;0.80;;;0.80;;
19907;SDS011;10116;53.112;7.356;2024-01-15T04:12:51;1.23;;;0.73;;
19907;SDS011;10116;53.112;7.356;2024-01-15T04:15:17;0.90;;;0.67;;
19907;SDS011;10116;53.112;7.356;2024-01-15T04:17:42;1.33;;;0.97;;
19907;SDS011;10116;53.112;7.356;2024-01-15T04:20:08;1.27;;;0.73;;
19907;SDS011;10116;53.112;7.356;2024-01-15T04:22:35;0.90;;;0.73;;
19907;SDS011;10116;53.112;7.356;2024-01-15T04:25:01;1.23;;;0.60;;
19907;SDS011;10116;53.112;7.356;2024-01-15T04:27:27;3.13;;;1.10;;
19907;SDS011;10116;53.112;7.356;2024-01-15T04:29:52;11.27;;;1.00;;
19907;SDS011;10116;53.112;7.356;2024-01-15T04:32:18;0.77;;;0.63;;
19907;SDS011;10116;53.112;7.356;2024-01-15T04:34:44;0.90;;;0.70;;
19907;SDS011;10116;53.112;7.356;2024-01-15T04:37:10;0.70;;;0.70;;
19907;SDS011;10116;53.112;7.356;2024-01-15T04:39:35;0.70;;;0.60;;
19907;SDS011;10116;53.112;7.356;2024-01-15T04:42:01;1.33;;;0.83;;
19907;SDS011;10116;53.112;7.356;2024-01-15T04:44:28;12.47;;;1.10;;
19907;SDS011;10116;53.112;7.356;2024-01-15T04:46:54;1.10;;;0.80;;
19907;SDS011;10116;53.112;7.356;2024-01-15T04:49:19;1.27;;;0.70;;
19907;SDS011;10116;53.112;7.356;2024-01-15T04:51:45;0.97;;;0.77;;
19907;SDS011;10116;53.112;7.356;2024-01-15T04:54:11;0.80;;;0.80;;
19907;SDS011;10116;53.112;7.356;2024-01-15T04:56:37;1.07;;;0.50;;
19907;SDS011;10116;53.112;7.356;2024-01-15T04:59:02;1.60;;;0.80;;
19907;SDS011;10116;53.112;7.356;2024-01-15T05:01:31;6.93;;;1.03;;
19907;SDS011;10116;53.112;7.356;2024-01-15T05:03:58;8.50;;;0.80;;
19907;SDS011;10116;53.112;7.356;2024-01-15T05:06:24;2.10;;;0.87;;
19907;SDS011;10116;53.112;7.356;2024-01-15T05:08:49;1.03;;;0.67;;
19907;SDS011;10116;53.112;7.356;2024-01-15T05:11:15;0.87;;;0.70;;
19907;SDS011;10116;53.112;7.356;2024-01-15T05:13:41;2.23;;;0.80;;
19907;SDS011;10116;53.112;7.356;2024-01-15T05:16:06;1.40;;;1.17;;
19907;SDS011;10116;53.112;7.356;2024-01-15T05:18:32;3.90;;;0.87;;
19907;SDS011;10116;53.112;7.356;2024-01-15T05:20:58;0.60;;;0.60;;
19907;SDS011;10116;53.112;7.356;2024-01-15T05:23:24;1.10;;;0.60;;
19907;SDS011;10116;53.112;7.356;2024-01-15T05:25:49;1.17;;;1.00;;
19907;SDS011;10116;53.112;7.356;2024-01-15T05:28:15;1.03;;;0.70;;
19907;SDS011;10116;53.112;7.356;2024-01-15T05:30:41;0.70;;;0.70;;
19907;SDS011;10116;53.112;7.356;2024-01-15T05:33:07;1.67;;;0.80;;
19907;SDS011;10116;53.112;7.356;2024-01-15T05:35:33;1.37;;;0.70;;
19907;SDS011;10116;53.112;7.356;2024-01-15T05:37:59;1.93;;;0.90;;
19907;SDS011;10116;53.112;7.356;2024-01-15T05:40:25;2.33;;;0.80;;
19907;SDS011;10116;53.112;7.356;2024-01-15T05:42:50;1.07;;;1.07;;
19907;SDS011;10116;53.112;7.356;2024-01-15T05:45:16;1.23;;;0.60;;
19907;SDS011;10116;53.112;7.356;2024-01-15T05:47:42;2.97;;;0.70;;
19907;SDS011;10116;53.112;7.356;2024-01-15T05:50:09;0.60;;;0.60;;
19907;SDS011;10116;53.112;7.356;2024-01-15T05:52:35;1.03;;;0.70;;
19907;SDS011;10116;53.112;7.356;2024-01-15T05:55:01;4.70;;;0.87;;
19907;SDS011;10116;53.112;7.356;2024-01-15T05:57:27;2.23;;;0.70;;
19907;SDS011;10116;53.112;7.356;2024-01-15T05:59:53;3.33;;;0.90;;
19907;SDS011;10116;53.112;7.356;2024-01-15T06:02:19;15.33;;;1.20;;
19907;SDS011;10116;53.112;7.356;2024-01-15T06:04:44;2.83;;;0.60;;
19907;SDS011;10116;53.112;7.356;2024-01-15T06:07:10;0.90;;;0.70;;
19907;SDS011;10116;53.112;7.356;2024-01-15T06:09:36;1.33;;;0.80;;
19907;SDS011;10116;53.112;7.356;2024-01-15T06:12:01;1.47;;;0.70;;
19907;SDS011;10116;53.112;7.356;2024-01-15T06:14:27;4.33;;;0.83;;
19907;SDS011;10116;53.112;7.356;2024-01-15T06:16:53;3.07;;;0.97;;
19907;SDS011;10116;53.112;7.356;2024-01-15T06:19:18;0.83;;;0.70;;
19907;SDS011;10116;53.112;7.356;2024-01-15T06:21:44;1.33;;;0.90;;
19907;SDS011;10116;53.112;7.356;2024-01-15T06:24:09;0.73;;;0.73;;
19907;SDS011;10116;53.112;7.356;2024-01-15T06:26:35;0.80;;;0.80;;
19907;SDS011;10116;53.112;7.356;2024-01-15T06:29:01;1.43;;;0.80;;
19907;SDS011;10116;53.112;7.356;2024-01-15T06:31:28;1.13;;;0.70;;
19907;SDS011;10116;53.112;7.356;2024-01-15T06:33:53;1.07;;;0.67;;
19907;SDS011;10116;53.112;7.356;2024-01-15T06:36:20;0.80;;;0.80;;
19907;SDS011;10116;53.112;7.356;2024-01-15T06:38:45;1.57;;;0.70;;
19907;SDS011;10116;53.112;7.356;2024-01-15T06:41:11;1.00;;;0.60;;
19907;SDS011;10116;53.112;7.356;2024-01-15T06:43:36;0.97;;;0.60;;
19907;SDS011;10116;53.112;7.356;2024-01-15T06:46:02;2.50;;;0.60;;
19907;SDS011;10116;53.112;7.356;2024-01-15T06:48:28;0.63;;;0.60;;
19907;SDS011;10116;53.112;7.356;2024-01-15T06:50:53;3.40;;;1.03;;
19907;SDS011;10116;53.112;7.356;2024-01-15T06:53:19;0.70;;;0.60;;
19907;SDS011;10116;53.112;7.356;2024-01-15T06:55:45;1.20;;;0.90;;
19907;SDS011;10116;53.112;7.356;2024-01-15T06:58:11;1.53;;;1.10;;
19907;SDS011;10116;53.112;7.356;2024-01-15T07:00:37;5.80;;;2.30;;
19907;SDS011;10116;53.112;7.356;2024-01-15T07:03:03;3.00;;;1.67;;
19907;SDS011;10116;53.112;7.356;2024-01-15T07:05:28;10.80;;;1.70;;
19907;SDS011;10116;53.112;7.356;2024-01-15T07:07:55;3.83;;;1.63;;
19907;SDS011;10116;53.112;7.356;2024-01-15T07:10:21;9.03;;;1.47;;
19907;SDS011;10116;53.112;7.356;2024-01-15T07:12:47;2.50;;;1.23;;
19907;SDS011;10116;53.112;7.356;2024-01-15T07:15:13;4.13;;;1.67;;
19907;SDS011;10116;53.112;7.356;2024-01-15T07:17:39;7.20;;;2.00;;
19907;SDS011;10116;53.112;7.356;2024-01-15T07:20:08;1.93;;;1.03;;
19907;SDS011;10116;53.112;7.356;2024-01-15T07:22:37;3.97;;;1.70;;
19907;SDS011;10116;53.112;7.356;2024-01-15T07:25:03;2.10;;;1.13;;
19907;SDS011;10116;53.112;7.356;2024-01-15T07:27:30;7.10;;;2.00;;
19907;SDS011;10116;53.112;7.356;2024-01-15T07:29:56;4.37;;;1.30;;
19907;SDS011;10116;53.112;7.356;2024-01-15T07:32:22;2.20;;;1.43;;
19907;SDS011;10116;53.112;7.356;2024-01-15T07:34:48;7.33;;;1.37;;
19907;SDS011;10116;53.112;7.356;2024-01-15T07:37:14;4.63;;;1.30;;
19907;SDS011;10116;53.112;7.356;2024-01-15T07:39:39;4.50;;;0.93;;
19907;SDS011;10116;53.112;7.356;2024-01-15T07:42:05;5.60;;;1.43;;
19907;SDS011;10116;53.112;7.356;2024-01-15T07:44:31;2.10;;;1.20;;
19907;SDS011;10116;53.112;7.356;2024-01-15T07:46:56;3.90;;;1.63;;
19907;SDS011;10116;53.112;7.356;2024-01-15T07:49:22;2.43;;;1.30;;
19907;SDS011;10116;53.112;7.356;2024-01-15T07:51:48;1.73;;;0.90;;
19907;SDS011;10116;53.112;7.356;2024-01-15T07:54:14;3.40;;;1.40;;
19907;SDS011;10116;53.112;7.356;2024-01-15T07:56:56;4.17;;;1.90;;
19907;SDS011;10116;53.112;7.356;2024-01-15T07:59:23;2.10;;;0.83;;
19907;SDS011;10116;53.112;7.356;2024-01-15T08:01:49;1.63;;;1.00;;
19907;SDS011;10116;53.112;7.356;2024-01-15T08:04:16;4.03;;;1.23;;
19907;SDS011;10116;53.112;7.356;2024-01-15T08:06:41;3.50;;;1.53;;
19907;SDS011;10116;53.112;7.356;2024-01-15T08:09:07;1.60;;;1.10;;
19907;SDS011;10116;53.112;7.356;2024-01-15T08:11:33;1.93;;;1.00;;
19907;SDS011;10116;53.112;7.356;2024-01-15T08:13:59;3.00;;;1.23;;
19907;SDS011;10116;53.112;7.356;2024-01-15T08:16:25;2.40;;;1.07;;
19907;SDS011;10116;53.112;7.356;2024-01-15T08:18:52;3.37;;;1.13;;
19907;SDS011;10116;53.112;7.356;2024-01-15T08:21:18;4.77;;;1.43;;
19907;SDS011;10116;53.112;7.356;2024-01-15T08:23:44;6.47;;;1.43;;
19907;SDS011;10116;53.112;7.356;2024-01-15T08:26:10;5.03;;;1.90;;
19907;SDS011;10116;53.112;7.356;2024-01-15T08:28:36;2.13;;;1.40;;
19907;SDS011;10116;53.112;7.356;2024-01-15T08:31:02;2.50;;;1.10;;
19907;SDS011;10116;53.112;7.356;2024-01-15T08:33:28;12.23;;;1.47;;
19907;SDS011;10116;53.112;7.356;2024-01-15T08:35:54;6.13;;;1.33;;
19907;SDS011;10116;53.112;7.356;2024-01-15T08:38:20;10.77;;;1.70;;
19907;SDS011;10116;53.112;7.356;2024-01-15T08:40:45;3.60;;;1.50;;
19907;SDS011;10116;53.112;7.356;2024-01-15T08:43:12;2.00;;;1.47;;
19907;SDS011;10116;53.112;7.356;2024-01-15T08:45:38;3.80;;;1.40;;
19907;SDS011;10116;53.112;7.356;2024-01-15T08:48:04;4.63;;;1.40;;
19907;SDS011;10116;53.112;7.356;2024-01-15T08:50:31;4.27;;;1.33;;
19907;SDS011;10116;53.112;7.356;2024-01-15T08:52:57;3.17;;;1.30;;
19907;SDS011;10116;53.112;7.356;2024-01-15T08:55:23;5.00;;;1.33;;
19907;SDS011;10116;53.112;7.356;2024-01-15T08:57:49;5.27;;;1.60;;
19907;SDS011;10116;53.112;7.356;2024-01-15T09:00:15;4.10;;;1.20;;
19907;SDS011;10116;53.112;7.356;2024-01-15T09:02:42;3.03;;;1.50;;
19907;SDS011;10116;53.112;7.356;2024-01-15T09:05:08;4.87;;;1.40;;
19907;SDS011;10116;53.112;7.356;2024-01-15T09:07:33;4.30;;;1.50;;
19907;SDS011;10116;53.112;7.356;2024-01-15T09:09:59;5.90;;;1.60;;
19907;SDS011;10116;53.112;7.356;2024-01-15T09:12:25;6.73;;;1.93;;
19907;SDS011;10116;53.112;7.356;2024-01-15T09:14:51;4.53;;;1.97;;
19907;SDS011;10116;53.112;7.356;2024-01-15T09:17:18;4.67;;;1.37;;
19907;SDS011;10116;53.112;7.356;2024-01-15T09:19:48;2.60;;;1.53;;
19907;SDS011;10116;53.112;7.356;2024-01-15T09:22:14;8.83;;;1.90;;
19907;SDS011;10116;53.112;7.356;2024-01-15T09:24:43;4.27;;;1.70;;
19907;SDS011;10116;53.112;7.356;2024-01-15T09:27:09;6.07;;;2.10;;
19907;SDS011;10116;53.112;7.356;2024-01-15T09:29:35;4.40;;;1.47;;
19907;SDS011;10116;53.112;7.356;2024-01-15T09:32:04;3.03;;;1.60;;
19907;SDS011;10116;53.112;7.356;2024-01-15T09:34:32;8.27;;;1.80;;
19907;SDS011;10116;53.112;7.356;2024-01-15T09:36:58;3.40;;;1.60;;
19907;SDS011;10116;53.112;7.356;2024-01-15T09:39:25;4.23;;;1.30;;
19907;SDS011;10116;53.112;7.356;2024-01-15T09:41:55;1.60;;;1.20;;
19907;SDS011;10116;53.112;7.356;2024-01-15T09:44:22;6.00;;;1.50;;
19907;SDS011;10116;53.112;7.356;2024-01-15T09:46:48;4.97;;;1.63;;
19907;SDS011;10116;53.112;7.356;2024-01-15T09:49:15;4.10;;;1.60;;
19907;SDS011;10116;53.112;7.356;2024-01-15T09:51:42;4.50;;;1.60;;
19907;SDS011;10116;53.112;7.356;2024-01-15T09:54:07;2.10;;;1.10;;
19907;SDS011;10116;53.112;7.356;2024-01-15T09:56:34;4.13;;;1.57;;
19907;SDS011;10116;53.112;7.356;2024-01-15T09:59:00;2.50;;;1.40;;
19907;SDS011;10116;53.112;7.356;2024-01-15T10:01:26;3.57;;;1.50;;
19907;SDS011;10116;53.112;7.356;2024-01-15T10:03:54;2.40;;;1.20;;
19907;SDS011;10116;53.112;7.356;2024-01-15T10:06:21;3.40;;;1.30;;
19907;SDS011;10116;53.112;7.356;2024-01-15T10:08:48;1.30;;;1.20;;
19907;SDS011;10116;53.112;7.356;2024-01-15T10:11:15;4.30;;;1.47;;
19907;SDS011;10116;53.112;7.356;2024-01-15T10:13:43;2.50;;;1.50;;
19907;SDS011;10116;53.112;7.356;2024-01-15T10:16:09;2.07;;;1.00;;
19907;SDS011;10116;53.112;7.356;2024-01-15T10:18:36;2.40;;;1.27;;
19907;SDS011;10116;53.112;7.356;2024-01-15T10:21:11;1.67;;;1.30;;
19907;SDS011;10116;53.112;7.356;2024-01-15T10:23:37;1.07;;;0.97;;
19907;SDS011;10116;53.112;7.356;2024-01-15T10:26:03;4.20;;;1.20;;
19907;SDS011;10116;53.112;7.356;2024-01-15T10:28:29;1.43;;;0.90;;
19907;SDS011;10116;53.112;7.356;2024-01-15T10:30:55;1.37;;;1.27;;
19907;SDS011;10116;53.112;7.356;2024-01-15T10:33:22;3.10;;;1.73;;
19907;SDS011;10116;53.112;7.356;2024-01-15T10:36:00;1.10;;;1.10;;
19907;SDS011;10116;53.112;7.356;2024-01-15T10:38:26;1.47;;;1.00;;
19907;SDS011;10116;53.112;7.356;2024-01-15T10:40:52;1.60;;;1.00;;
19907;SDS011;10116;53.112;7.356;2024-01-15T10:43:21;2.50;;;1.07;;
19907;SDS011;10116;53.112;7.356;2024-01-15T10:45:49;2.60;;;1.00;;
19907;SDS011;10116;53.112;7.356;2024-01-15T10:48:16;1.43;;;0.90;;
19907;SDS011;10116;53.112;7.356;2024-01-15T10:50:43;1.33;;;1.03;;
19907;SDS011;10116;53.112;7.356;2024-01-15T10:53:10;1.47;;;0.73;;
19907;SDS011;10116;53.112;7.356;2024-01-15T10:55:37;1.43;;;0.70;;
19907;SDS011;10116;53.112;7.356;2024-01-15T10:58:06;1.40;;;1.00;;
19907;SDS011;10116;53.112;7.356;2024-01-15T11:00:33;1.33;;;1.03;;
19907;SDS011;10116;53.112;7.356;2024-01-15T11:03:00;1.20;;;0.90;;
19907;SDS011;10116;53.112;7.356;2024-01-15T11:05:27;0.97;;;0.70;;
19907;SDS011;10116;53.112;7.356;2024-01-15T11:07:56;2.77;;;1.50;;
19907;SDS011;10116;53.112;7.356;2024-01-15T11:13:21;1.90;;;1.03;;
19907;SDS011;10116;53.112;7.356;2024-01-15T11:16:05;2.93;;;1.23;;
19907;SDS011;10116;53.112;7.356;2024-01-15T11:18:36;2.50;;;1.30;;
19907;SDS011;10116;53.112;7.356;2024-01-15T11:34:20;1.43;;;0.90;;
19907;SDS011;10116;53.112;7.356;2024-01-15T11:41:56;1.00;;;0.73;;
19907;SDS011;10116;53.112;7.356;2024-01-15T11:44:22;2.50;;;0.97;;
19907;SDS011;10116;53.112;7.356;2024-01-15T11:50:05;1.43;;;1.17;;
19907;SDS011;10116;53.112;7.356;2024-01-15T11:52:32;0.90;;;0.80;;
19907;SDS011;10116;53.112;7.356;2024-01-15T11:55:11;1.20;;;0.83;;
19907;SDS011;10116;53.112;7.356;2024-01-15T11:57:54;1.20;;;1.10;;
19907;SDS011;10116;53.112;7.356;2024-01-15T12:00:22;1.03;;;0.70;;
19907;SDS011;10116;53.112;7.356;2024-01-15T12:02:48;1.00;;;0.90;;
19907;SDS011;10116;53.112;7.356;2024-01-15T12:05:16;1.30;;;0.80;;
19907;SDS011;10116;53.112;7.356;2024-01-15T12:07:44;0.93;;;0.83;;
19907;SDS011;10116;53.112;7.356;2024-01-15T12:15:28;2.17;;;0.80;;
19907;SDS011;10116;53.112;7.356;2024-01-15T12:17:55;1.10;;;0.70;;
19907;SDS011;10116;53.112;7.356;2024-01-15T12:20:25;1.03;;;0.80;;
19907;SDS011;10116;53.112;7.356;2024-01-15T12:22:54;0.97;;;0.87;;
19907;SDS011;10116;53.112;7.356;2024-01-15T12:25:21;2.60;;;1.27;;
19907;SDS011;10116;53.112;7.356;2024-01-15T12:27:48;4.23;;;0.90;;
19907;SDS011;10116;53.112;7.356;2024-01-15T12:30:14;1.20;;;0.97;;
19907;SDS011;10116;53.112;7.356;2024-01-15T12:32:43;0.90;;;0.80;;
19907;SDS011;10116;53.112;7.356;2024-01-15T12:35:12;6.50;;;1.13;;
19907;SDS011;10116;53.112;7.356;2024-01-15T12:37:39;0.80;;;0.80;;
19907;SDS011;10116;53.112;7.356;2024-01-15T12:40:06;0.87;;;0.80;;
19907;SDS011;10116;53.112;7.356;2024-01-15T12:42:34;1.10;;;1.00;;
19907;SDS011;10116;53.112;7.356;2024-01-15T12:45:09;1.03;;;0.80;;
19907;SDS011;10116;53.112;7.356;2024-01-15T12:47:38;0.90;;;0.80;;
19907;SDS011;10116;53.112;7.356;2024-01-15T12:50:08;8.20;;;1.47;;
19907;SDS011;10116;53.112;7.356;2024-01-15T12:52:34;12.20;;;0.80;;
19907;SDS011;10116;53.112;7.356;2024-01-15T12:55:02;2.07;;;1.03;;
19907;SDS011;10116;53.112;7.356;2024-01-15T12:57:32;3.30;;;1.00;;
19907;SDS011;10116;53.112;7.356;2024-01-15T12:59:59;5.63;;;1.03;;
19907;SDS011;10116;53.112;7.356;2024-01-15T13:02:24;1.20;;;0.90;;
19907;SDS011;10116;53.112;7.356;2024-01-15T13:04:50;1.50;;;0.70;;
19907;SDS011;10116;53.112;7.356;2024-01-15T13:07:16;0.93;;;0.83;;
19907;SDS011;10116;53.112;7.356;2024-01-15T13:09:42;1.80;;;1.00;;
19907;SDS011;10116;53.112;7.356;2024-01-15T13:12:08;0.60;;;0.60;;
19907;SDS011;10116;53.112;7.356;2024-01-15T13:14:34;0.80;;;0.80;;
19907;SDS011;10116;53.112;7.356;2024-01-15T13:17:00;3.37;;;0.90;;
19907;SDS011;10116;53.112;7.356;2024-01-15T13:19:25;0.80;;;0.80;;
19907;SDS011;10116;53.112;7.356;2024-01-15T13:21:52;0.90;;;0.80;;
19907;SDS011;10116;53.112;7.356;2024-01-15T13:24:18;0.93;;;0.70;;
19907;SDS011;10116;53.112;7.356;2024-01-15T13:26:44;0.80;;;0.80;;
19907;SDS011;10116;53.112;7.356;2024-01-15T13:29:10;0.90;;;0.90;;
19907;SDS011;10116;53.112;7.356;2024-01-15T13:31:36;1.10;;;1.00;;
19907;SDS011;10116;53.112;7.356;2024-01-15T13:34:03;1.73;;;0.83;;
19907;SDS011;10116;53.112;7.356;2024-01-15T13:36:29;2.53;;;0.73;;
19907;SDS011;10116;53.112;7.356;2024-01-15T13:38:54;1.63;;;0.70;;
19907;SDS011;10116;53.112;7.356;2024-01-15T13:41:20;0.73;;;0.73;;
19907;SDS011;10116;53.112;7.356;2024-01-15T13:43:53;3.60;;;0.90;;
19907;SDS011;10116;53.112;7.356;2024-01-15T13:46:23;3.37;;;1.00;;
19907;SDS011;10116;53.112;7.356;2024-01-15T13:48:51;1.77;;;0.60;;
19907;SDS011;10116;53.112;7.356;2024-01-15T13:51:17;0.67;;;0.67;;
19907;SDS011;10116;53.112;7.356;2024-01-15T13:53:42;1.40;;;0.57;;
19907;SDS011;10116;53.112;7.356;2024-01-15T13:56:08;2.40;;;1.17;;
19907;SDS011;10116;53.112;7.356;2024-01-15T13:58:37;0.77;;;0.77;;
19907;SDS011;10116;53.112;7.356;2024-01-15T14:01:03;0.97;;;0.70;;
19907;SDS011;10116;53.112;7.356;2024-01-15T14:03:30;2.80;;;1.03;;
19907;SDS011;10116;53.112;7.356;2024-01-15T14:05:56;1.10;;;0.90;;
19907;SDS011;10116;53.112;7.356;2024-01-15T14:08:23;1.03;;;0.73;;
19907;SDS011;10116;53.112;7.356;2024-01-15T14:10:49;0.80;;;0.80;;
19907;SDS011;10116;53.112;7.356;2024-01-15T14:13:14;1.13;;;0.70;;
19907;SDS011;10116;53.112;7.356;2024-01-15T14:15:40;2.00;;;0.60;;
19907;SDS011;10116;53.112;7.356;2024-01-15T14:18:06;0.70;;;0.60;;
19907;SDS011;10116;53.112;7.356;2024-01-15T14:20:32;0.90;;;0.70;;
19907;SDS011;10116;53.112;7.356;2024-01-15T14:22:58;1.20;;;0.73;;
19907;SDS011;10116;53.112;7.356;2024-01-15T14:25:24;1.03;;;0.70;;
19907;SDS011;10116;53.112;7.356;2024-01-15T14:27:49;0.90;;;0.63;;
19907;SDS011;10116;53.112;7.356;2024-01-15T14:30:15;0.70;;;0.60;;
19907;SDS011;10116;53.112;7.356;2024-01-15T14:32:41;0.80;;;0.80;;
19907;SDS011;10116;53.112;7.356;2024-01-15T14:35:08;0.70;;;0.70;;
19907;SDS011;10116;53.112;7.356;2024-01-15T14:37:36;2.60;;;0.70;;
19907;SDS011;10116;53.112;7.356;2024-01-15T14:40:03;2.17;;;0.83;;
19907;SDS011;10116;53.112;7.356;2024-01-15T14:42:30;0.63;;;0.63;;
19907;SDS011;10116;53.112;7.356;2024-01-15T14:44:56;0.87;;;0.87;;
19907;SDS011;10116;53.112;7.356;2024-01-15T14:47:21;1.07;;;0.80;;
19907;SDS011;10116;53.112;7.356;2024-01-15T14:49:49;1.23;;;0.70;;
19907;SDS011;10116;53.112;7.356;2024-01-15T14:52:15;0.93;;;0.60;;
19907;SDS011;10116;53.112;7.356;2024-01-15T14:54:41;1.03;;;0.80;;
19907;SDS011;10116;53.112;7.356;2024-01-15T14:57:06;1.47;;;1.10;;
19907;SDS011;10116;53.112;7.356;2024-01-15T14:59:32;0.90;;;0.73;;
19907;SDS011;10116;53.112;7.356;2024-01-15T15:01:58;0.77;;;0.73;;
19907;SDS011;10116;53.112;7.356;2024-01-15T15:04:23;1.23;;;0.80;;
19907;SDS011;10116;53.112;7.356;2024-01-15T15:06:49;1.27;;;1.13;;
19907;SDS011;10116;53.112;7.356;2024-01-15T15:09:15;2.43;;;0.90;;
19907;SDS011;10116;53.112;7.356;2024-01-15T15:11:40;0.80;;;0.70;;
19907;SDS011;10116;53.112;7.356;2024-01-15T15:14:06;0.80;;;0.80;;